Time;durP1;ratioP1;P1;durP2;ratioP2;P2;SDS_P1;SDS_P2;PMS_P1;PMS_P2;Temp;Humidity;BMP_temperature;BMP_pressure;BME280_temperature;BME280_humidity;BME280_pressure;Samples;Min_cycle;Max_cycle;Signal;HPM_P1;HPM_P2
2021/05/14 00:00:47;;;;;;;3.63;1.30;;;;;;;;;;5087713;28;20031;-76
2021/05/14 00:03:13;;;;;;;1.08;0.95;;;;;;;;;;5087534;28;20266;-76
2021/05/14 00:05:39;;;;;;;1.40;1.30;;;;;;;;;;5090433;28;20024;-74
2021/05/14 00:08:05;;;;;;;0.85;0.85;;;;;;;;;;5089631;28;20428;-76
2021/05/14 00:10:32;;;;;;;1.27;1.20;;;;;;;;;;5089791;28;20121;-75
2021/05/14 00:12:58;;;;;;;0.87;0.87;;;;;;;;;;5072453;28;20032;-76
2021/05/14 00:15:24;;;;;;;1.53;1.43;;;;;;;;;;5080744;28;20266;-74
2021/05/14 00:17:51;;;;;;;1.27;1.20;;;;;;;;;;5079820;28;20475;-76
2021/05/14 00:20:17;;;;;;;1.25;1.15;;;;;;;;;;5070017;28;20040;-76
2021/05/14 00:22:44;;;;;;;2.20;1.20;;;;;;;;;;5089836;28;20032;-76
2021/05/14 00:25:10;;;;;;;1.17;1.07;;;;;;;;;;5088351;28;20028;-76
2021/05/14 00:27:36;;;;;;;1.20;0.95;;;;;;;;;;5088814;28;20040;-76
2021/05/14 00:30:03;;;;;;;1.98;0.90;;;;;;;;;;5081686;28;20094;-76
2021/05/14 00:32:29;;;;;;;1.52;1.00;;;;;;;;;;5086322;28;20042;-75
2021/05/14 00:34:55;;;;;;;0.80;0.80;;;;;;;;;;5080418;28;20021;-75
2021/05/14 00:37:21;;;;;;;0.85;0.80;;;;;;;;;;5070358;28;20025;-76
2021/05/14 00:39:47;;;;;;;1.10;0.90;;;;;;;;;;5088636;28;20059;-75
2021/05/14 00:42:13;;;;;;;0.75;0.75;;;;;;;;;;5089620;28;20110;-76
2021/05/14 00:44:46;;;;;;;0.80;0.80;;;;;;;;;;5089191;28;20020;-76
2021/05/14 00:47:13;;;;;;;0.80;0.80;;;;;;;;;;5075709;28;20041;-76
2021/05/14 00:49:39;;;;;;;0.90;0.90;;;;;;;;;;5076971;28;20031;-75
2021/05/14 00:52:08;;;;;;;0.82;0.80;;;;;;;;;;5071518;28;20072;-75
2021/05/14 00:54:34;;;;;;;0.88;0.80;;;;;;;;;;5076186;28;20034;-77
2021/05/14 00:57:00;;;;;;;0.85;0.85;;;;;;;;;;5091738;28;20119;-76
2021/05/14 00:59:27;;;;;;;0.80;0.80;;;;;;;;;;5076254;28;20497;-77
2021/05/14 01:01:53;;;;;;;0.80;0.70;;;;;;;;;;5081343;28;20039;-77
2021/05/14 01:04:19;;;;;;;1.17;0.73;;;;;;;;;;5086722;28;20028;-75
2021/05/14 01:06:45;;;;;;;0.90;0.68;;;;;;;;;;5073018;28;20062;-75
2021/05/14 01:09:13;;;;;;;0.85;0.85;;;;;;;;;;5074370;28;20041;-75
2021/05/14 01:11:39;;;;;;;0.70;0.70;;;;;;;;;;5085874;28;20084;-76
2021/05/14 01:14:05;;;;;;;0.80;0.80;;;;;;;;;;5072397;28;20056;-74
2021/05/14 01:16:31;;;;;;;1.25;0.95;;;;;;;;;;5091173;28;20109;-76
2021/05/14 01:18:57;;;;;;;0.98;0.90;;;;;;;;;;5093213;28;20055;-75
2021/05/14 01:21:23;;;;;;;1.50;1.00;;;;;;;;;;5073445;28;20470;-74
2021/05/14 01:23:49;;;;;;;0.80;0.80;;;;;;;;;;5082059;28;20042;-75
2021/05/14 01:26:16;;;;;;;0.70;0.70;;;;;;;;;;5074303;28;20043;-74
2021/05/14 01:28:43;;;;;;;0.63;0.63;;;;;;;;;;5079659;28;20040;-75
2021/05/14 01:31:09;;;;;;;0.63;0.63;;;;;;;;;;5092844;28;20070;-75
2021/05/14 01:33:36;;;;;;;0.60;0.60;;;;;;;;;;5075894;28;20028;-75
2021/05/14 01:36:02;;;;;;;0.70;0.70;;;;;;;;;;5089400;28;20028;-75
2021/05/14 01:38:28;;;;;;;0.70;0.70;;;;;;;;;;5075371;28;20020;-75
2021/05/14 01:40:54;;;;;;;0.90;0.90;;;;;;;;;;5083581;28;20043;-76
2021/05/14 01:43:20;;;;;;;1.27;0.82;;;;;;;;;;5078349;28;20536;-76
2021/05/14 01:45:46;;;;;;;0.90;0.90;;;;;;;;;;5092866;28;20020;-75
2021/05/14 01:48:13;;;;;;;0.70;0.70;;;;;;;;;;5092414;28;20066;-76
2021/05/14 01:50:39;;;;;;;0.90;0.90;;;;;;;;;;5089784;28;20099;-76
2021/05/14 01:53:05;;;;;;;0.80;0.80;;;;;;;;;;5091856;28;20285;-76
2021/05/14 01:55:32;;;;;;;0.80;0.70;;;;;;;;;;5092297;28;20024;-76
2021/05/14 01:57:58;;;;;;;1.10;0.95;;;;;;;;;;5092530;28;20028;-76
2021/05/14 02:00:24;;;;;;;0.70;0.70;;;;;;;;;;5088158;28;20028;-74
2021/05/14 02:02:50;;;;;;;0.70;0.70;;;;;;;;;;5092436;28;20040;-75
2021/05/14 02:05:16;;;;;;;0.65;0.65;;;;;;;;;;5082707;28;20029;-76
2021/05/14 02:07:42;;;;;;;0.90;0.90;;;;;;;;;;5075829;28;20062;-75
2021/05/14 02:10:08;;;;;;;0.57;0.57;;;;;;;;;;5071929;28;20478;-75
2021/05/14 02:12:34;;;;;;;0.77;0.63;;;;;;;;;;5071568;28;20025;-76
2021/05/14 02:15:00;;;;;;;0.70;0.70;;;;;;;;;;5071643;28;20270;-76
2021/05/14 02:17:26;;;;;;;0.88;0.88;;;;;;;;;;5080930;28;20046;-76
2021/05/14 02:19:54;;;;;;;0.63;0.63;;;;;;;;;;5090846;28;20454;-75
2021/05/14 02:22:20;;;;;;;0.73;0.73;;;;;;;;;;5088583;28;20050;-76
2021/05/14 02:24:46;;;;;;;0.80;0.80;;;;;;;;;;5089660;28;20036;-76
2021/05/14 02:27:12;;;;;;;0.70;0.70;;;;;;;;;;5076798;28;20040;-75
2021/05/14 02:29:38;;;;;;;0.55;0.55;;;;;;;;;;5077359;28;20028;-76
2021/05/14 02:32:05;;;;;;;0.80;0.80;;;;;;;;;;5071204;28;20039;-74
2021/05/14 02:34:31;;;;;;;;;;;;;;;;;;5072253;28;20475;-76
2021/05/14 02:36:57;;;;;;;0.63;0.50;;;;;;;;;;5075446;28;19923;-75
2021/05/14 02:39:23;;;;;;;1.00;0.90;;;;;;;;;;5091616;28;20724;-75
2021/05/14 02:41:49;;;;;;;0.70;0.70;;;;;;;;;;5071327;28;20413;-75
2021/05/14 02:44:15;;;;;;;0.75;0.75;;;;;;;;;;5070628;28;20104;-75
2021/05/14 02:46:42;;;;;;;0.73;0.70;;;;;;;;;;5088046;28;20054;-75
2021/05/14 02:49:08;;;;;;;1.20;0.68;;;;;;;;;;5089845;28;20486;-76
2021/05/14 02:51:34;;;;;;;0.98;0.63;;;;;;;;;;5072563;28;20067;-76
2021/05/14 02:54:00;;;;;;;0.50;0.50;;;;;;;;;;5071226;28;20517;-76
2021/05/14 02:56:28;;;;;;;0.60;0.60;;;;;;;;;;5070781;28;20020;-74
2021/05/14 02:58:54;;;;;;;0.70;0.70;;;;;;;;;;5071238;28;20032;-77
2021/05/14 03:01:20;;;;;;;0.80;0.80;;;;;;;;;;5083882;28;20458;-75
2021/05/14 03:03:46;;;;;;;0.57;0.57;;;;;;;;;;5090725;28;20028;-75
2021/05/14 03:06:12;;;;;;;1.60;0.87;;;;;;;;;;5090835;28;20028;-75
2021/05/14 03:08:38;;;;;;;0.80;0.80;;;;;;;;;;5073802;28;20459;-74
2021/05/14 03:11:04;;;;;;;0.60;0.60;;;;;;;;;;5070231;28;20425;-75
2021/05/14 03:13:31;;;;;;;1.48;1.00;;;;;;;;;;5086541;28;20115;-75
2021/05/14 03:15:56;;;;;;;2.13;0.67;;;;;;;;;;5077954;28;20056;-74
2021/05/14 03:18:22;;;;;;;0.95;0.88;;;;;;;;;;5090456;28;20429;-75
2021/05/14 03:20:48;;;;;;;1.17;0.85;;;;;;;;;;5091068;28;20123;-75
2021/05/14 03:23:15;;;;;;;0.63;0.63;;;;;;;;;;5089023;28;20032;-76
2021/05/14 03:25:41;;;;;;;1.57;0.70;;;;;;;;;;5089667;28;20119;-75
2021/05/14 03:28:07;;;;;;;0.80;0.80;;;;;;;;;;5078062;28;20051;-75
2021/05/14 03:30:33;;;;;;;0.63;0.63;;;;;;;;;;5080122;28;20112;-75
2021/05/14 03:32:59;;;;;;;0.60;0.60;;;;;;;;;;5069350;28;20364;-76
2021/05/14 03:35:25;;;;;;;0.70;0.70;;;;;;;;;;5088758;28;20044;-75
2021/05/14 03:37:51;;;;;;;0.70;0.70;;;;;;;;;;5090871;28;20050;-78
2021/05/14 03:40:32;;;;;;;0.77;0.77;;;;;;;;;;5089114;28;20365;-78
2021/05/14 03:42:59;;;;;;;0.70;0.70;;;;;;;;;;5079993;28;20043;-78
2021/05/14 03:45:25;;;;;;;0.55;0.55;;;;;;;;;;5070745;28;20111;-77
2021/05/14 03:47:53;;;;;;;0.70;0.70;;;;;;;;;;5071650;28;20053;-76
2021/05/14 03:50:19;;;;;;;0.57;0.57;;;;;;;;;;5071393;28;20024;-76
2021/05/14 03:52:45;;;;;;;0.98;0.90;;;;;;;;;;5083317;28;20106;-75
2021/05/14 03:55:11;;;;;;;1.02;0.90;;;;;;;;;;5089659;28;20410;-74
2021/05/14 03:57:37;;;;;;;0.70;0.70;;;;;;;;;;5080151;28;20467;-75
2021/05/14 04:00:04;;;;;;;1.77;0.75;;;;;;;;;;5082156;28;20115;-75
2021/05/14 04:02:30;;;;;;;0.70;0.70;;;;;;;;;;5071537;28;20344;-76
2021/05/14 04:04:58;;;;;;;0.63;0.60;;;;;;;;;;5081066;28;20462;-76
2021/05/14 04:07:24;;;;;;;0.80;0.80;;;;;;;;;;5089503;28;20155;-75
2021/05/14 04:10:05;;;;;;;0.60;0.60;;;;;;;;;;5086847;28;20418;-75
2021/05/14 04:15:09;;;;;;;0.52;0.52;;;;;;;;;;5089818;28;20028;-75
2021/05/14 04:17:35;;;;;;;0.40;0.40;;;;;;;;;;5088016;28;20652;-75
2021/05/14 04:20:02;;;;;;;2.92;0.65;;;;;;;;;;5090122;28;20061;-75
2021/05/14 04:22:28;;;;;;;0.60;0.60;;;;;;;;;;5084548;28;20062;-75
2021/05/14 04:24:54;;;;;;;0.68;0.68;;;;;;;;;;5089192;28;20017;-76
2021/05/14 04:27:21;;;;;;;0.73;0.63;;;;;;;;;;5074559;28;20540;-76
2021/05/14 04:29:47;;;;;;;0.35;0.35;;;;;;;;;;5080336;28;20360;-75
2021/05/14 04:32:13;;;;;;;0.50;0.50;;;;;;;;;;5080433;28;20020;-76
2021/05/14 04:34:39;;;;;;;1.10;0.85;;;;;;;;;;5073693;28;20024;-76
2021/05/14 04:37:06;;;;;;;0.35;0.35;;;;;;;;;;5073034;28;20028;-75
2021/05/14 04:39:32;;;;;;;;;;;;;;;;;;5074201;28;20021;-76
2021/05/14 04:41:58;;;;;;;0.50;0.50;;;;;;;;;;5082298;28;19951;-75
2021/05/14 04:44:24;;;;;;;0.40;0.40;;;;;;;;;;5092846;28;20028;-74
2021/05/14 04:46:52;;;;;;;0.70;0.70;;;;;;;;;;5092604;28;20425;-74
2021/05/14 04:49:18;;;;;;;0.55;0.55;;;;;;;;;;5093458;28;20135;-75
2021/05/14 04:51:44;;;;;;;0.77;0.60;;;;;;;;;;5087298;28;20139;-75
2021/05/14 04:54:10;;;;;;;0.50;0.50;;;;;;;;;;5075908;28;20029;-74
2021/05/14 04:56:36;;;;;;;0.50;0.50;;;;;;;;;;5092232;28;20028;-74
2021/05/14 04:59:02;;;;;;;0.50;0.50;;;;;;;;;;5080474;28;20045;-76
2021/05/14 05:01:28;;;;;;;0.50;0.50;;;;;;;;;;5086588;28;20663;-77
2021/05/14 05:03:55;;;;;;;3.72;0.80;;;;;;;;;;5083343;28;20024;-76
2021/05/14 05:06:20;;;;;;;;;;;;;;;;;;5074379;28;20028;-76
2021/05/14 05:08:47;;;;;;;1.25;0.63;;;;;;;;;;5072578;28;19951;-77
2021/05/14 05:11:13;;;;;;;0.88;0.73;;;;;;;;;;5073247;28;20099;-76
2021/05/14 05:13:39;;;;;;;3.33;0.60;;;;;;;;;;5091498;28;20036;-76
2021/05/14 05:16:05;;;;;;;0.77;0.75;;;;;;;;;;5076576;28;20028;-75
2021/05/14 05:18:31;;;;;;;1.42;0.88;;;;;;;;;;5078044;28;20060;-75
2021/05/14 05:20:57;;;;;;;0.70;0.70;;;;;;;;;;5073006;28;20024;-73
2021/05/14 05:23:23;;;;;;;0.70;0.70;;;;;;;;;;5087339;28;20058;-75
2021/05/14 05:25:49;;;;;;;0.68;0.68;;;;;;;;;;5092959;28;20258;-76
2021/05/14 05:28:20;;;;;;;0.70;0.70;;;;;;;;;;5084877;28;20044;-75
2021/05/14 05:30:46;;;;;;;0.93;0.65;;;;;;;;;;5071350;28;20040;-76
2021/05/14 05:33:12;;;;;;;0.73;0.73;;;;;;;;;;5072551;28;20028;-76
2021/05/14 05:35:38;;;;;;;0.60;0.60;;;;;;;;;;5073273;28;20467;-77
2021/05/14 05:38:13;;;;;;;0.90;0.70;;;;;;;;;;5072496;28;20111;-75
2021/05/14 05:40:39;;;;;;;0.47;0.47;;;;;;;;;;5081345;28;20334;-76
2021/05/14 05:43:05;;;;;;;1.47;0.70;;;;;;;;;;5089335;28;20087;-74
2021/05/14 05:45:31;;;;;;;3.93;0.70;;;;;;;;;;5088146;28;20259;-76
2021/05/14 05:47:57;;;;;;;0.60;0.60;;;;;;;;;;5079273;28;20048;-76
2021/05/14 05:50:23;;;;;;;0.57;0.57;;;;;;;;;;5085449;28;20044;-77
2021/05/14 05:52:52;;;;;;;2.13;0.65;;;;;;;;;;5079553;28;20024;-76
2021/05/14 05:55:18;;;;;;;0.60;0.60;;;;;;;;;;5091418;28;20028;-76
2021/05/14 05:57:43;;;;;;;0.63;0.63;;;;;;;;;;5088992;28;20472;-75
2021/05/14 06:00:10;;;;;;;0.57;0.57;;;;;;;;;;5072423;28;20518;-75
2021/05/14 06:02:36;;;;;;;1.35;0.80;;;;;;;;;;5072078;28;20656;-75
2021/05/14 06:05:02;;;;;;;0.90;0.90;;;;;;;;;;5072681;28;20029;-76
2021/05/14 06:07:28;;;;;;;0.80;0.80;;;;;;;;;;5081591;28;20035;-77
2021/05/14 06:09:54;;;;;;;3.25;0.60;;;;;;;;;;5092383;28;20521;-76
2021/05/14 06:12:20;;;;;;;0.60;0.60;;;;;;;;;;5087391;28;20090;-76
2021/05/14 06:14:46;;;;;;;0.68;0.63;;;;;;;;;;5071504;28;20035;-77
2021/05/14 06:17:12;;;;;;;2.67;1.00;;;;;;;;;;5081041;28;20036;-80
2021/05/14 06:19:48;;;;;;;0.70;0.65;;;;;;;;;;5081610;28;20024;-79
2021/05/14 06:22:14;;;;;;;0.85;0.57;;;;;;;;;;5075216;28;20033;-79
2021/05/14 06:24:40;;;;;;;0.70;0.70;;;;;;;;;;5071590;28;20052;-77
2021/05/14 06:27:06;;;;;;;0.77;0.77;;;;;;;;;;5072242;28;20472;-77
2021/05/14 06:29:32;;;;;;;0.70;0.70;;;;;;;;;;5072460;28;20353;-79
2021/05/14 06:31:58;;;;;;;3.15;0.98;;;;;;;;;;5071875;28;20068;-79
2021/05/14 06:34:25;;;;;;;2.78;0.80;;;;;;;;;;5074389;28;20390;-77
2021/05/14 06:36:51;;;;;;;2.13;0.80;;;;;;;;;;5076523;28;20240;-78
2021/05/14 06:39:16;;;;;;;1.87;0.70;;;;;;;;;;5070985;28;20024;-78
2021/05/14 06:41:42;;;;;;;0.80;0.80;;;;;;;;;;5083504;28;20052;-77
2021/05/14 06:44:08;;;;;;;2.38;0.85;;;;;;;;;;5071058;28;20029;-78
2021/05/14 06:46:35;;;;;;;0.50;0.50;;;;;;;;;;5070949;28;20087;-79
2021/05/14 06:49:00;;;;;;;1.05;0.90;;;;;;;;;;5072930;28;20441;-77
2021/05/14 06:51:27;;;;;;;0.90;0.90;;;;;;;;;;5077975;28;20036;-80
2021/05/14 06:53:53;;;;;;;0.65;0.65;;;;;;;;;;5090021;28;20140;-79
2021/05/14 06:56:19;;;;;;;2.60;1.20;;;;;;;;;;5091101;28;20458;-79
2021/05/14 06:58:45;;;;;;;0.87;0.87;;;;;;;;;;5086766;28;20274;-80
2021/05/14 07:01:11;;;;;;;1.08;0.98;;;;;;;;;;5076259;28;20834;-78
2021/05/14 07:03:37;;;;;;;1.00;1.00;;;;;;;;;;5085353;28;20040;-79
2021/05/14 07:06:03;;;;;;;1.20;1.10;;;;;;;;;;5087414;28;20024;-79
2021/05/14 07:08:29;;;;;;;1.17;1.15;;;;;;;;;;5090516;28;20040;-79
2021/05/14 07:10:55;;;;;;;1.40;1.30;;;;;;;;;;5086255;28;20143;-80
2021/05/14 07:13:21;;;;;;;2.85;1.23;;;;;;;;;;5111389;27;20141;-78
2021/05/14 07:15:48;;;;;;;2.00;1.30;;;;;;;;;;5103406;28;20591;-79
2021/05/14 07:18:14;;;;;;;1.60;1.20;;;;;;;;;;5087174;28;20313;-80
2021/05/14 07:20:40;;;;;;;1.45;1.30;;;;;;;;;;5079472;28;20037;-79
2021/05/14 07:23:06;;;;;;;6.17;1.17;;;;;;;;;;5109471;28;20036;-79
2021/05/14 07:25:32;;;;;;;1.67;1.30;;;;;;;;;;5111897;28;20287;-79
2021/05/14 07:27:58;;;;;;;1.13;1.07;;;;;;;;;;5090156;28;20082;-82
2021/05/14 07:30:24;;;;;;;1.30;1.17;;;;;;;;;;5085520;28;20271;-80
2021/05/14 07:32:50;;;;;;;3.63;1.50;;;;;;;;;;5074731;28;20040;-74
2021/05/14 07:35:16;;;;;;;1.50;1.20;;;;;;;;;;5074521;28;20810;-77
2021/05/14 07:37:42;;;;;;;5.47;1.50;;;;;;;;;;5100043;28;20028;-77
2021/05/14 07:40:08;;;;;;;2.03;1.40;;;;;;;;;;5104909;28;20028;-77
2021/05/14 07:42:34;;;;;;;2.83;1.33;;;;;;;;;;5095011;28;20031;-78
2021/05/14 07:45:00;;;;;;;1.40;1.30;;;;;;;;;;5085160;28;20025;-78
2021/05/14 07:47:26;;;;;;;1.50;1.40;;;;;;;;;;5069988;28;20049;-80
2021/05/14 07:49:52;;;;;;;2.27;1.30;;;;;;;;;;5100876;28;20558;-79
2021/05/14 07:52:18;;;;;;;4.73;1.20;;;;;;;;;;5111103;28;20019;-78
2021/05/14 07:54:44;;;;;;;1.50;1.40;;;;;;;;;;5088287;27;20055;-78
2021/05/14 07:57:10;;;;;;;1.97;1.37;;;;;;;;;;5085853;28;20060;-80
2021/05/14 07:59:36;;;;;;;1.27;1.13;;;;;;;;;;5087081;28;20298;-81
2021/05/14 08:02:02;;;;;;;2.17;1.40;;;;;;;;;;5079286;28;20255;-81
2021/05/14 08:04:28;;;;;;;1.47;1.30;;;;;;;;;;5089721;28;20036;-83
2021/05/14 08:06:54;;;;;;;1.13;1.00;;;;;;;;;;5089451;28;20042;-81
2021/05/14 08:09:23;;;;;;;1.95;1.30;;;;;;;;;;5085994;28;20064;-79
2021/05/14 08:11:49;;;;;;;1.38;1.23;;;;;;;;;;5089588;28;20020;-78
2021/05/14 08:14:15;;;;;;;0.98;0.93;;;;;;;;;;5076398;28;20056;-80
2021/05/14 08:16:41;;;;;;;1.23;1.13;;;;;;;;;;5082865;28;20035;-80
2021/05/14 08:19:11;;;;;;;3.77;1.50;;;;;;;;;;5088538;28;20531;-80
2021/05/14 08:21:37;;;;;;;1.25;1.15;;;;;;;;;;5088513;28;20039;-79
2021/05/14 08:24:03;;;;;;;2.30;1.47;;;;;;;;;;5088593;28;20048;-81
2021/05/14 08:26:29;;;;;;;1.85;1.40;;;;;;;;;;5090417;28;20035;-81
2021/05/14 08:28:55;;;;;;;3.67;1.50;;;;;;;;;;5090894;28;20028;-80
2021/05/14 08:31:21;;;;;;;1.92;1.38;;;;;;;;;;5089295;28;20345;-82
2021/05/14 08:33:47;;;;;;;1.83;1.47;;;;;;;;;;5090950;28;20140;-79
2021/05/14 08:36:13;;;;;;;3.87;1.40;;;;;;;;;;5090114;28;20421;-81
2021/05/14 08:38:39;;;;;;;4.18;1.60;;;;;;;;;;5088499;28;20024;-80
2021/05/14 08:41:06;;;;;;;2.40;1.35;;;;;;;;;;5089124;28;20504;-81
2021/05/14 08:43:32;;;;;;;2.65;1.70;;;;;;;;;;5091026;28;20028;-82
2021/05/14 08:46:01;;;;;;;2.00;1.40;;;;;;;;;;5090757;28;20162;-82
2021/05/14 08:48:27;;;;;;;2.00;1.40;;;;;;;;;;5089391;28;20064;-84
2021/05/14 08:50:53;;;;;;;3.53;1.40;;;;;;;;;;5078644;28;20051;-84
2021/05/14 08:53:19;;;;;;;1.70;1.40;;;;;;;;;;5082273;28;20028;-84
2021/05/14 08:55:45;;;;;;;1.60;1.37;;;;;;;;;;5069086;28;20068;-85
2021/05/14 08:58:11;;;;;;;3.23;1.50;;;;;;;;;;5070325;28;20323;-84
2021/05/14 09:00:38;;;;;;;2.13;1.40;;;;;;;;;;5070148;28;20095;-83
2021/05/14 09:03:10;;;;;;;1.70;1.40;;;;;;;;;;5068807;28;20036;-83
2021/05/14 09:05:37;;;;;;;2.03;1.40;;;;;;;;;;5069964;28;20036;-83
2021/05/14 09:08:03;;;;;;;1.75;1.40;;;;;;;;;;5069232;28;20174;-84
2021/05/14 09:10:29;;;;;;;;;;;;;;;;;;5073380;28;20082;-84
2021/05/14 09:12:56;;;;;;;2.10;1.30;;;;;;;;;;5077154;28;20432;-81
2021/05/14 09:15:22;;;;;;;2.45;1.25;;;;;;;;;;5084078;28;20051;-81
2021/05/14 09:18:03;;;;;;;6.03;1.57;;;;;;;;;;5082688;28;20032;-81
2021/05/14 09:20:29;;;;;;;2.17;1.52;;;;;;;;;;5093455;28;20031;-82
2021/05/14 09:22:55;;;;;;;3.40;1.52;;;;;;;;;;5086807;28;20070;-82
2021/05/14 09:25:21;;;;;;;1.90;1.50;;;;;;;;;;5087248;28;20055;-81
2021/05/14 09:27:47;;;;;;;2.23;1.60;;;;;;;;;;5078405;28;20053;-79
2021/05/14 09:30:13;;;;;;;3.80;1.80;;;;;;;;;;5079608;28;20662;-82
2021/05/14 09:32:39;;;;;;;3.28;2.00;;;;;;;;;;5076897;28;20051;-81
2021/05/14 09:35:06;;;;;;;3.23;1.80;;;;;;;;;;5072585;28;20024;-79
2021/05/14 09:37:32;;;;;;;3.42;1.60;;;;;;;;;;5079998;28;20280;-77
2021/05/14 09:40:17;;;;;;;4.80;1.80;;;;;;;;;;5080339;28;20417;-78
2021/05/14 09:42:44;;;;;;;2.65;1.67;;;;;;;;;;5084060;28;20527;-77
2021/05/14 09:45:17;;;;;;;3.35;1.75;;;;;;;;;;5088725;28;20532;-78
2021/05/14 09:47:43;;;;;;;4.00;1.60;;;;;;;;;;5071906;28;20066;-79
2021/05/14 09:50:29;;;;;;;2.47;1.60;;;;;;;;;;5085944;28;20032;-79
2021/05/14 09:53:21;;;;;;;3.00;1.50;;;;;;;;;;5071850;28;20430;-78
2021/05/14 09:55:50;;;;;;;3.22;1.80;;;;;;;;;;5081388;28;20046;-80
2021/05/14 09:58:25;;;;;;;2.58;1.80;;;;;;;;;;5072004;28;20033;-84
2021/05/14 10:00:51;;;;;;;3.28;1.67;;;;;;;;;;5078768;28;20382;-85
2021/05/14 10:03:18;;;;;;;3.07;1.40;;;;;;;;;;5089908;28;20089;-83
2021/05/14 10:05:49;;;;;;;4.90;1.83;;;;;;;;;;5089413;28;20273;-82
2021/05/14 10:08:18;;;;;;;5.53;1.50;;;;;;;;;;5093079;27;20083;-79
2021/05/14 10:10:44;;;;;;;3.35;1.67;;;;;;;;;;5090935;28;20449;-82
2021/05/14 10:13:11;;;;;;;2.05;1.60;;;;;;;;;;5081170;28;20025;-81
2021/05/14 10:15:37;;;;;;;5.47;1.58;;;;;;;;;;5070557;28;20017;-79
2021/05/14 10:18:06;;;;;;;5.15;1.70;;;;;;;;;;5081559;28;20045;-78
2021/05/14 10:20:33;;;;;;;3.45;1.50;;;;;;;;;;5081574;28;20020;-79
2021/05/14 10:23:00;;;;;;;4.88;1.65;;;;;;;;;;5074176;28;20036;-80
2021/05/14 10:25:39;;;;;;;2.15;1.40;;;;;;;;;;5070896;28;20398;-79
2021/05/14 10:28:08;;;;;;;2.40;1.70;;;;;;;;;;5071285;28;20041;-81
2021/05/14 10:30:34;;;;;;;2.05;1.35;;;;;;;;;;5088646;28;20024;-75
2021/05/14 10:33:00;;;;;;;2.37;1.50;;;;;;;;;;5080108;28;20048;-76
2021/05/14 10:35:27;;;;;;;2.10;1.50;;;;;;;;;;5070974;28;20475;-76
2021/05/14 10:37:53;;;;;;;;;;;;;;;;;;5073111;28;20094;-77
2021/05/14 10:40:32;;;;;;;1.63;1.30;;;;;;;;;;5076322;28;20363;-75
2021/05/14 10:42:59;;;;;;;3.50;1.45;;;;;;;;;;5089711;28;20013;-75
2021/05/14 10:45:39;;;;;;;1.98;1.33;;;;;;;;;;5075344;28;20507;-78
2021/05/14 10:48:16;;;;;;;1.77;1.35;;;;;;;;;;5088899;28;20583;-76
2021/05/14 10:50:43;;;;;;;1.40;1.30;;;;;;;;;;5078770;28;20401;-86
2021/05/14 10:53:26;;;;;;;1.52;1.40;;;;;;;;;;5088153;28;20023;-85
2021/05/14 10:55:52;;;;;;;1.55;1.30;;;;;;;;;;5089824;28;20099;-86
2021/05/14 10:58:36;;;;;;;1.70;1.30;;;;;;;;;;5081457;28;20028;-85
2021/05/14 11:01:02;;;;;;;2.13;1.30;;;;;;;;;;5071397;28;20064;-87
2021/05/14 11:03:31;;;;;;;3.03;1.50;;;;;;;;;;5069174;28;20076;-87
2021/05/14 11:06:08;;;;;;;3.83;1.55;;;;;;;;;;5071213;28;20032;-86
2021/05/14 11:08:34;;;;;;;;;;;;;;;;;;5074977;28;20044;-84
2021/05/14 11:11:01;;;;;;;1.65;1.17;;;;;;;;;;5075499;28;19908;-87
2021/05/14 11:13:37;;;;;;;2.03;1.38;;;;;;;;;;5074370;28;20506;-87
2021/05/14 11:16:22;;;;;;;1.67;1.20;;;;;;;;;;5071808;28;20044;-86
2021/05/14 11:18:51;;;;;;;1.95;1.40;;;;;;;;;;5074847;28;20017;-85
2021/05/14 11:21:20;;;;;;;2.17;1.40;;;;;;;;;;5087417;28;20040;-87
2021/05/14 11:23:46;;;;;;;1.50;1.40;;;;;;;;;;5080009;28;20405;-83
2021/05/14 11:26:19;;;;;;;1.20;1.10;;;;;;;;;;5077714;28;20032;-76
2021/05/14 11:28:47;;;;;;;1.55;1.42;;;;;;;;;;5082543;28;20035;-76
2021/05/14 11:31:14;;;;;;;3.58;1.60;;;;;;;;;;5089562;28;20040;-78
2021/05/14 11:33:47;;;;;;;2.33;1.27;;;;;;;;;;5070035;28;20150;-78
2021/05/14 11:36:13;;;;;;;1.17;1.10;;;;;;;;;;5074481;28;20067;-77
2021/05/14 11:38:44;;;;;;;1.92;1.30;;;;;;;;;;5084079;28;20488;-77
2021/05/14 11:41:12;;;;;;;5.15;1.50;;;;;;;;;;5081255;28;20044;-79
2021/05/14 11:43:38;;;;;;;1.33;1.23;;;;;;;;;;5078468;28;20021;-79
2021/05/14 11:46:09;;;;;;;2.70;1.80;;;;;;;;;;5088650;28;20150;-83
2021/05/14 11:48:37;;;;;;;2.20;1.45;;;;;;;;;;5099515;28;20042;-84
2021/05/14 11:51:03;;;;;;;1.85;1.40;;;;;;;;;;5078292;28;20679;-78
2021/05/14 11:53:31;;;;;;;1.50;1.40;;;;;;;;;;5072208;28;20037;-83
2021/05/14 11:55:57;;;;;;;3.22;1.50;;;;;;;;;;5069777;28;20078;-85
2021/05/14 11:58:26;;;;;;;6.93;2.00;;;;;;;;;;5074347;28;20082;-84
2021/05/14 12:00:52;;;;;;;2.63;1.50;;;;;;;;;;5080894;28;20020;-83
2021/05/14 12:03:19;;;;;;;3.53;1.38;;;;;;;;;;5084954;28;20064;-82
2021/05/14 12:05:49;;;;;;;1.40;1.30;;;;;;;;;;5075880;28;20016;-80
2021/05/14 12:08:16;;;;;;;3.05;1.45;;;;;;;;;;5077251;28;20032;-81
2021/05/14 12:10:48;;;;;;;4.25;1.52;;;;;;;;;;5072661;28;20036;-84
2021/05/14 12:13:14;;;;;;;3.22;1.25;;;;;;;;;;5086510;28;20138;-82
2021/05/14 12:15:41;;;;;;;1.65;1.40;;;;;;;;;;5072441;28;20029;-82
2021/05/14 12:18:07;;;;;;;1.48;1.27;;;;;;;;;;5079808;28;20091;-81
2021/05/14 12:20:40;;;;;;;2.13;1.50;;;;;;;;;;5089195;28;20039;-88
2021/05/14 12:23:07;;;;;;;1.92;1.38;;;;;;;;;;5086222;28;20518;-87
2021/05/14 12:25:47;;;;;;;1.77;1.27;;;;;;;;;;5082269;28;20039;-91
2021/05/14 12:28:28;;;;;;;2.17;1.35;;;;;;;;;;5085983;28;20051;-90
2021/05/14 12:30:55;;;;;;;1.30;1.20;;;;;;;;;;5090524;28;20032;-90
2021/05/14 12:33:21;;;;;;;5.38;1.33;;;;;;;;;;5086830;28;20032;-90
2021/05/14 12:35:56;;;;;;;4.22;1.40;;;;;;;;;;5089950;28;20036;-91
2021/05/14 12:38:37;;;;;;;2.88;1.50;;;;;;;;;;5088564;28;20028;-89
2021/05/14 12:41:03;;;;;;;1.63;1.30;;;;;;;;;;5089429;28;20028;-91
2021/05/14 12:43:29;;;;;;;1.55;1.35;;;;;;;;;;5090409;28;20032;-91
2021/05/14 12:46:05;;;;;;;2.05;1.25;;;;;;;;;;5092046;28;20023;-90
2021/05/14 12:48:31;;;;;;;1.35;1.08;;;;;;;;;;5092446;28;20048;-91
2021/05/14 12:50:57;;;;;;;1.43;1.17;;;;;;;;;;5094253;28;20062;-90
2021/05/14 12:53:24;;;;;;;1.47;1.37;;;;;;;;;;5091367;28;20036;-90
2021/05/14 12:55:50;;;;;;;2.35;1.40;;;;;;;;;;5099957;28;20460;-89
2021/05/14 12:58:16;;;;;;;2.00;1.40;;;;;;;;;;5108745;28;20401;-87
2021/05/14 13:00:42;;;;;;;1.83;1.40;;;;;;;;;;5094114;28;20470;-87
2021/05/14 13:03:11;;;;;;;1.33;1.23;;;;;;;;;;5092788;28;20377;-88
2021/05/14 13:05:43;;;;;;;1.10;1.02;;;;;;;;;;5093495;28;20058;-88
2021/05/14 13:08:13;;;;;;;2.00;1.50;;;;;;;;;;5092639;28;20036;-87
2021/05/14 13:10:50;;;;;;;1.17;1.10;;;;;;;;;;5093702;28;20012;-87
2021/05/14 13:13:21;;;;;;;1.23;1.15;;;;;;;;;;5077653;28;20086;-87
2021/05/14 13:15:48;;;;;;;1.70;1.45;;;;;;;;;;5073300;28;20040;-87
2021/05/14 13:18:14;;;;;;;;;;;;;;;;;;5073733;28;20062;-87
2021/05/14 13:20:40;;;;;;;1.63;1.40;;;;;;;;;;5071822;28;20003;-87
2021/05/14 13:23:06;;;;;;;1.20;1.08;;;;;;;;;;5085311;28;20378;-87
2021/05/14 13:25:32;;;;;;;1.35;1.00;;;;;;;;;;5081521;28;20178;-88
2021/05/14 13:27:58;;;;;;;1.30;1.20;;;;;;;;;;5084410;28;20040;-87
2021/05/14 13:30:24;;;;;;;1.50;1.10;;;;;;;;;;5074397;28;20415;-86
2021/05/14 13:32:50;;;;;;;1.83;1.30;;;;;;;;;;5071337;28;20115;-87
2021/05/14 13:35:16;;;;;;;1.30;1.20;;;;;;;;;;5077675;28;20123;-87
2021/05/14 13:37:42;;;;;;;1.83;1.42;;;;;;;;;;5074015;28;20024;-81
2021/05/14 13:40:08;;;;;;;1.45;1.35;;;;;;;;;;5074009;28;20075;-79
2021/05/14 13:42:34;;;;;;;1.45;1.30;;;;;;;;;;5091954;28;20032;-84
2021/05/14 13:45:00;;;;;;;1.57;1.20;;;;;;;;;;5091498;28;20401;-83
2021/05/14 13:47:27;;;;;;;1.33;1.10;;;;;;;;;;5086790;27;20046;-84
2021/05/14 13:49:53;;;;;;;1.33;1.17;;;;;;;;;;5102725;28;20035;-84
2021/05/14 13:52:19;;;;;;;1.17;1.07;;;;;;;;;;5105759;28;20373;-85
2021/05/14 13:54:45;;;;;;;1.60;1.13;;;;;;;;;;5099440;28;20028;-83
2021/05/14 13:57:11;;;;;;;1.38;1.00;;;;;;;;;;5091715;28;20410;-83
2021/05/14 13:59:37;;;;;;;1.00;1.00;;;;;;;;;;5082154;28;20066;-84
2021/05/14 14:02:04;;;;;;;2.10;1.23;;;;;;;;;;5086857;28;20031;-83
2021/05/14 14:04:30;;;;;;;1.27;1.20;;;;;;;;;;5083231;28;20278;-82
2021/05/14 14:06:56;;;;;;;0.97;0.97;;;;;;;;;;5083205;28;20032;-79
2021/05/14 14:09:22;;;;;;;1.02;0.95;;;;;;;;;;5092426;28;20047;-78
2021/05/14 14:11:49;;;;;;;1.97;1.10;;;;;;;;;;5079314;28;20056;-79
2021/05/14 14:14:15;;;;;;;1.00;1.00;;;;;;;;;;5082545;28;20074;-81
2021/05/14 14:16:41;;;;;;;1.13;1.08;;;;;;;;;;5085966;28;20090;-78
2021/05/14 14:19:07;;;;;;;5.38;1.55;;;;;;;;;;5082005;28;20434;-77
2021/05/14 14:21:33;;;;;;;5.07;1.50;;;;;;;;;;5088177;28;20031;-75
2021/05/14 14:23:59;;;;;;;1.50;1.40;;;;;;;;;;5072041;28;20031;-76
2021/05/14 14:26:25;;;;;;;4.13;1.53;;;;;;;;;;5070467;28;20359;-74
2021/05/14 14:28:51;;;;;;;5.43;1.92;;;;;;;;;;5071180;28;20053;-75
2021/05/14 14:31:17;;;;;;;6.53;1.40;;;;;;;;;;5071060;28;20038;-77
2021/05/14 14:33:43;;;;;;;2.47;1.40;;;;;;;;;;5071760;28;20032;-78
2021/05/14 14:36:09;;;;;;;1.03;1.03;;;;;;;;;;5083950;28;20416;-77
2021/05/14 14:38:35;;;;;;;2.13;1.30;;;;;;;;;;5091718;28;20085;-78
2021/05/14 14:41:01;;;;;;;1.42;1.30;;;;;;;;;;5089679;28;20306;-77
2021/05/14 14:43:27;;;;;;;33.38;3.95;;;;;;;;;;5081015;28;20049;-76
2021/05/14 14:45:54;;;;;;;16.50;2.90;;;;;;;;;;5074130;28;20111;-75
2021/05/14 14:48:20;;;;;;;3.30;1.70;;;;;;;;;;5077612;28;20062;-76